• Join FlightAware (Why Join?)
  • Login
  • US Flag 
12:43PM EST


 

Airport Tracker/Info


-or-


 

Live Flight TrackerFlight Track Log ✈ FFT346 ✈ 04-May-2013 ✈ KLAS - KDEN

Flight Track Log - Related Links

Times and Time Zones

All times are in EDT time to prevent confusion due to time zone crossing. See the FFT346 flight status page for this flight to view local times or setup timezone preferences in your user account.

Time Position Orientation Groundspeed Altitude Reporting Facility
EDT Latitude Longitude Course Direction KTS MPH feet Rate Location/Type
09:47AM 36.0747 -115.1714 270° West 154 177 3,100  Level Los Angeles Center
09:47AM 36.0750 -115.2325 270° West 198 228 4,500 2,040 Climbing Los Angeles Center
09:49AM 36.1069 -115.2911 304° West 231 266 7,100 2,460 Climbing Los Angeles Center
09:50AM 36.1731 -115.2606 20° North 254 292 9,900 2,220 Climbing Los Angeles Center
09:51AM 36.1944 -115.1558 76° East 321 369 11,900 2,220 Climbing Los Angeles Center
09:52AM 36.1972 -115.0403 88° East 345 397 14,400 2,460 Climbing Los Angeles Center
09:53AM 36.2000 -114.9142 88° East 364 419 16,900 2,160 Climbing Los Angeles Center
09:54AM 36.1994 -114.7944 90° East 373 429 18,900 1,800 Climbing Los Angeles Center
09:55AM 36.1978 -114.6539 91° East 405 466 20,700 2,100 Climbing Los Angeles Center
09:56AM 36.1950 -114.4800 91° East 420 483 23,200 2,040 Climbing Los Angeles Center
09:57AM 36.1939 -114.3297 90° East 435 501 24,900 1,620 Climbing Los Angeles Center
09:58AM 36.2392 -114.1869 68° East 448 516 26,500 1,380 Climbing Los Angeles Center
09:59AM 36.2925 -114.0422 65° Northeast 459 528 27,800 1,260 Climbing Los Angeles Center
10:00AM 36.3486 -113.8928 65° Northeast 475 547 29,200 1,320 Climbing Los Angeles Center
10:01AM 36.4050 -113.7400 65° Northeast 485 558 30,500 1,320 Climbing Los Angeles Center
10:02AM 36.4614 -113.5864 65° Northeast 490 564 32,000 1,440 Climbing Los Angeles Center
10:03AM 36.5244 -113.4175 65° Northeast 492 566 33,500 1,380 Climbing Los Angeles Center
10:04AM 36.5794 -113.2625 66° East 492 566 34,900 1,260 Climbing Los Angeles Center
10:05AM 36.6353 -113.1097 65° Northeast 490 564 36,200 840 Climbing Los Angeles Center
10:06AM 36.6903 -112.9553 66° East 490 564 36,700 360 Climbing Los Angeles Center
10:07AM 36.7475 -112.7967 66° East 501 577 37,000 120 Climbing Los Angeles Center
10:08AM 36.8044 -112.6383 66° East 504 580 37,000  Level Los Angeles Center
10:09AM 36.8614 -112.4778 66° East 507 583 37,000  Level Los Angeles Center
10:10AM 36.9292 -112.2858 66° East 507 583 37,000  Level Los Angeles Center
10:11AM 36.9856 -112.1258 66° East 507 583 37,000  Level Los Angeles Center
10:12AM 37.0194 -112.0286 66° East 509 586 37,000  Level Denver Center
10:13AM 37.0883 -111.8336 66° East 512 589 37,000  Level Denver Center
10:14AM 37.1450 -111.6706 66° East 514 592 37,000  Level Denver Center
10:15AM 37.2097 -111.4769 67° East 509 586 37,000  Level Denver Center
10:16AM 37.2658 -111.3133 67° East 512 589 37,000  Level Denver Center
10:17AM 37.3211 -111.1481 67° East 515 593 37,000  Level Denver Center
10:18AM 37.3758 -110.9850 67° East 510 587 37,000  Level Denver Center
10:19AM 37.4425 -110.7867 67° East 515 593 37,000  Level Denver Center
10:20AM 37.4969 -110.6228 67° East 512 589 37,000  Level Denver Center
10:21AM 37.5469 -110.4747 67° East 517 595 37,000  Level Denver Center
10:23AM 37.6253 -110.2356 67° East 516 594 37,000  Level Denver Center
10:24AM 37.6858 -110.0492 68° East 513 590 37,000  Level Denver Center
10:25AM 37.7386 -109.8872 68° East 519 597 37,000  Level Denver Center
10:26AM 37.7900 -109.7261 68° East 516 594 37,000  Level Denver Center
10:27AM 37.8497 -109.5394 68° East 513 590 37,000  Level Denver Center
10:28AM 37.9014 -109.3797 68° East 511 588 37,000  Level Denver Center
10:29AM 37.9617 -109.1892 68° East 518 596 37,000  Level Denver Center
10:30AM 38.0217 -109.0014 68° East 516 594 37,000  Level Denver Center
10:31AM 38.0764 -108.8239 69° East 530 610 37,000  Level Denver Center
10:32AM 38.1364 -108.6261 69° East 535 616 37,000  Level Denver Center
10:33AM 38.1883 -108.4619 68° East 527 606 37,000  Level Denver Center
10:34AM 38.2481 -108.2675 69° East 527 606 37,000  Level Denver Center
10:35AM 38.2989 -108.1014 69° East 528 608 37,100  Climbing Denver Center
10:36AM 38.3569 -107.9117 69° East 518 596 37,000 -60 Descending Denver Center
10:37AM 38.3969 -107.7775 69° East 512 589 37,000 -180 Level Denver Center
10:38AM 38.4647 -107.5664 68° East 503 579 36,700 -660 Descending Denver Center
10:39AM 38.5267 -107.4264 60° Northeast 480 552 35,700 -1,020 Descending Denver Center
10:40AM 38.6031 -107.2564 60° Northeast 494 568 34,600 -960 Descending Denver Center
10:41AM 38.6633 -107.1214 60° Northeast 511 588 33,800 -900 Descending Denver Center
10:42AM 38.7311 -106.9692 60° Northeast 497 572 32,800 -1,080 Descending Denver Center
10:43AM 38.8144 -106.7808 60° Northeast 508 585 31,600 -1,080 Descending Denver Center
10:44AM 38.8819 -106.6269 61° Northeast 499 574 30,600 -1,020 Descending Denver Center
10:45AM 38.9561 -106.4678 59° Northeast 490 564 29,600 -960 Descending Denver Center
10:46AM 39.0214 -106.3253 59° Northeast 484 557 28,700 -1,320 Descending Denver Center
10:48AM 39.0958 -106.1644 59° Northeast 474 545 26,900 -1,920 Descending Denver Center
10:49AM 39.1575 -106.0228 61° Northeast 454 522 24,800 -2,100 Descending Denver Center
10:50AM 39.2164 -105.8886 60° Northeast 429 494 22,700 -2,040 Descending Denver Center
10:51AM 39.2725 -105.7614 60° Northeast 409 471 20,700 -1,680 Descending Denver Center
10:52AM 39.3253 -105.6383 61° Northeast 390 449 19,300 -1,440 Descending Denver Center
10:53AM 39.3756 -105.5242 60° Northeast 368 423 17,800 -1,260 Descending Denver Center
10:54AM 39.3983 -105.3975 77° East 349 402 16,800 -1,140 Descending Denver Center
10:55AM 39.4053 -105.2703 86° East 333 383 15,500 -1,080 Descending Denver Center
10:56AM 39.4092 -105.1586 87° East 317 365 14,600 -960 Descending Denver Center
10:57AM 39.4133 -105.0758 86° East 284 327 13,600 -780 Descending Denver Center
10:58AM 39.4375 -104.9672 74° East 254 292 13,000 -300 Descending Denver Center
10:59AM 39.4647 -104.8808 68° East 257 296 13,000 -300 Level Denver Center
11:00AM 39.4925 -104.7892 69° East 254 292 12,400 -840 Descending Denver Center
11:01AM 39.5531 -104.7436 30° Northeast 251 289 11,300 -1,200 Descending Denver Center
11:02AM 39.6158 -104.6986 29° Northeast 240 276 10,000 -1,260 Descending Denver Center
11:03AM 39.6764 -104.6653 23° Northeast 238 274 8,800 -1,260 Descending Denver Center
11:04AM 39.7369 -104.6617 North 202 232 7,500 -1,200 Descending Denver Center
11:05AM 39.7814 -104.6614 360° North 163 188 6,400 -960 Descending Denver Center
11:06AM 39.8228 -104.6608 North 141 162 5,600 -780 Descending Denver Center
11:08AM 39.8500 -104.6667 10° North  Level FlightAware Approximate